Time;durP1;ratioP1;P1;durP2;ratioP2;P2;SDS_P1;SDS_P2;PMS_P1;PMS_P2;Temp;Humidity;BMP_temperature;BMP_pressure;BME280_temperature;BME280_humidity;BME280_pressure;Samples;Min_cycle;Max_cycle;Signal;HPM_P1;HPM_P2
2022/01/07 00:01:50;;;;;;;3.40;3.10;;;;;;;2.18;100.00;62226.59;5006372;28;20406;-76
2022/01/07 00:04:17;;;;;;;3.25;2.95;;;;;;;2.23;100.00;62229.72;5006729;28;20219;-76
2022/01/07 00:06:46;;;;;;;3.72;3.17;;;;;;;2.23;100.00;62232.25;5004245;28;20203;-76
2022/01/07 00:09:12;;;;;;;2.90;2.70;;;;;;;2.33;100.00;62242.50;4988029;28;20208;-77
2022/01/07 00:11:39;;;;;;;3.88;2.67;;;;;;;2.23;100.00;62234.75;5006564;28;20492;-76
2022/01/07 00:14:06;;;;;;;2.97;2.78;;;;;;;2.28;100.00;62237.38;5007332;28;20223;-76
2022/01/07 00:16:33;;;;;;;2.10;2.00;;;;;;;2.28;100.00;62231.84;5006553;28;20204;-77
2022/01/07 00:19:00;;;;;;;3.97;3.47;;;;;;;2.38;100.00;62245.13;5006298;28;20235;-76
2022/01/07 00:21:26;;;;;;;4.00;2.55;;;;;;;2.34;100.00;62243.03;5006676;28;20196;-75
2022/01/07 00:23:55;;;;;;;2.97;2.75;;;;;;;2.35;100.00;62241.53;5006699;28;20225;-76
2022/01/07 00:26:21;;;;;;;2.90;2.70;;;;;;;2.34;100.00;62238.53;5006480;28;20231;-76
2022/01/07 00:28:48;;;;;;;3.05;2.85;;;;;;;2.36;100.00;62245.59;5005663;28;20262;-75
2022/01/07 00:31:15;;;;;;;3.30;2.55;;;;;;;2.31;100.00;62237.94;5006452;28;20199;-74
2022/01/07 00:33:42;;;;;;;3.50;3.30;;;;;;;2.35;100.00;62244.56;5005813;28;20229;-76
2022/01/07 00:36:10;;;;;;;3.28;2.97;;;;;;;2.27;100.00;62230.81;5005760;28;20199;-75
2022/01/07 00:38:37;;;;;;;1.75;1.65;;;;;;;2.23;100.00;62226.69;5006520;28;20226;-76
2022/01/07 00:41:05;;;;;;;2.40;2.20;;;;;;;2.20;100.00;62226.66;5005610;28;20235;-76
2022/01/07 00:43:32;;;;;;;2.03;1.92;;;;;;;2.22;100.00;62230.69;5005525;28;20226;-76
2022/01/07 00:45:59;;;;;;;2.30;2.20;;;;;;;2.14;100.00;62223.00;5004747;28;20227;-75
2022/01/07 00:48:25;;;;;;;1.90;1.80;;;;;;;2.24;100.00;62232.75;5005962;28;20223;-75
2022/01/07 00:50:52;;;;;;;3.60;3.30;;;;;;;2.25;100.00;62231.28;5004429;28;20207;-76
2022/01/07 00:53:19;;;;;;;2.80;2.60;;;;;;;2.26;100.00;62235.31;5005674;28;20219;-76
2022/01/07 00:55:47;;;;;;;3.80;2.60;;;;;;;2.21;100.00;62232.69;5005025;28;20204;-76
2022/01/07 00:58:15;;;;;;;2.75;2.55;;;;;;;2.21;100.00;62229.66;5005296;28;20207;-76
2022/01/07 01:00:42;;;;;;;2.65;2.45;;;;;;;2.24;100.00;62235.28;5005374;28;20555;-75
2022/01/07 01:03:09;;;;;;;2.90;2.70;;;;;;;2.16;100.00;62225.06;5006182;28;20271;-75
2022/01/07 01:05:36;;;;;;;2.50;2.30;;;;;;;2.18;100.00;62224.59;5004743;28;20207;-76
2022/01/07 01:08:03;;;;;;;1.92;1.83;;;;;;;2.09;100.00;62219.84;5004835;28;20207;-76
2022/01/07 01:10:30;;;;;;;2.53;2.33;;;;;;;1.99;100.00;62207.06;5006197;28;20195;-77
2022/01/07 01:12:58;;;;;;;2.78;2.30;;;;;;;1.95;100.00;62205.50;5006501;28;20200;-76
2022/01/07 01:15:27;;;;;;;2.17;1.98;;;;;;;2.00;100.00;62203.59;5005693;28;20226;-75
2022/01/07 01:17:56;;;;;;;2.30;2.20;;;;;;;1.95;100.00;62200.97;5005364;28;20203;-75
2022/01/07 01:20:23;;;;;;;2.05;1.90;;;;;;;2.04;100.00;62212.72;5006280;28;20231;-75
2022/01/07 01:22:50;;;;;;;3.88;2.17;;;;;;;1.96;100.00;62204.00;5008046;28;20203;-75
2022/01/07 01:25:17;;;;;;;2.70;2.55;;;;;;;2.02;100.00;62205.66;5011122;28;20230;-75
2022/01/07 01:27:44;;;;;;;2.53;2.35;;;;;;;1.95;100.00;62203.47;5014413;28;20207;-76
2022/01/07 01:30:17;;;;;;;2.22;2.13;;;;;;;1.97;100.00;62213.06;5015982;28;20219;-75
2022/01/07 01:32:45;;;;;;;2.45;2.20;;;;;;;2.04;100.00;62217.75;5015715;28;20230;-77
2022/01/07 01:35:13;;;;;;;2.60;2.40;;;;;;;2.08;100.00;62219.34;5014212;28;20270;-76
2022/01/07 01:37:39;;;;;;;2.13;2.03;;;;;;;2.05;100.00;62213.75;5006424;28;20207;-76
2022/01/07 01:40:09;;;;;;;2.80;2.70;;;;;;;1.99;100.00;62207.06;5005950;28;20236;-76
2022/01/07 01:42:36;;;;;;;2.78;2.35;;;;;;;2.00;100.00;62205.59;5004573;28;20496;-76
2022/01/07 01:45:03;;;;;;;2.22;2.13;;;;;;;2.01;100.00;62209.66;5005340;28;20422;-75
2022/01/07 01:47:30;;;;;;;3.80;2.40;;;;;;;2.02;100.00;62210.66;5004932;28;20488;-75
2022/01/07 01:49:58;;;;;;;2.25;2.05;;;;;;;1.94;100.00;62199.97;5004318;28;20297;-76
2022/01/07 01:52:25;;;;;;;2.28;2.17;;;;;;;1.94;100.00;62202.47;5004151;28;20242;-77
2022/01/07 01:54:52;;;;;;;2.88;2.67;;;;;;;1.95;100.00;62200.47;5005481;28;20274;-75
2022/01/07 01:57:19;;;;;;;2.38;2.20;;;;;;;2.01;100.00;62207.16;5004659;28;20261;-76
2022/01/07 01:59:45;;;;;;;2.42;2.30;;;;;;;1.99;100.00;62199.53;5003640;28;20277;-76
2022/01/07 02:02:12;;;;;;;3.33;2.28;;;;;;;2.06;100.00;62209.75;5005190;28;20246;-76
2022/01/07 02:04:40;;;;;;;2.42;2.20;;;;;;;2.08;100.00;62214.34;5005168;28;20326;-75
2022/01/07 02:07:09;;;;;;;3.00;2.72;;;;;;;2.04;100.00;62207.72;5005035;28;20211;-76
2022/01/07 02:09:36;;;;;;;2.35;2.25;;;;;;;2.06;100.00;62214.78;5004371;28;20327;-76
2022/01/07 02:12:05;;;;;;;3.47;2.35;;;;;;;2.00;100.00;62206.09;5004822;28;20199;-76
2022/01/07 02:14:31;;;;;;;2.35;2.20;;;;;;;2.05;100.00;62211.25;5005284;28;20230;-77
2022/01/07 02:17:05;;;;;;;2.65;2.45;;;;;;;2.10;100.00;62213.34;5003429;28;20383;-76
2022/01/07 02:19:34;;;;;;;3.17;2.90;;;;;;;2.15;100.00;62223.50;5005527;28;20277;-76
2022/01/07 02:22:01;;;;;;;3.13;2.83;;;;;;;2.09;100.00;62217.34;5005850;28;20203;-75
2022/01/07 02:24:28;;;;;;;3.17;2.92;;;;;;;2.11;100.00;62212.38;5005340;28;20424;-76
2022/01/07 02:26:56;;;;;;;3.38;3.17;;;;;;;2.16;100.00;62224.53;5005910;28;20514;-74
2022/01/07 02:29:23;;;;;;;2.90;2.70;;;;;;;2.12;100.00;62218.44;5005964;28;20475;-75
2022/01/07 02:31:50;;;;;;;3.15;2.85;;;;;;;2.19;100.00;62225.13;5005845;28;20195;-76
2022/01/07 02:34:16;;;;;;;3.17;2.85;;;;;;;2.05;100.00;62213.25;5004572;28;20525;-77
2022/01/07 02:36:45;;;;;;;3.03;2.83;;;;;;;2.15;100.00;62223.50;5004851;28;20402;-76
2022/01/07 02:39:11;;;;;;;3.03;2.83;;;;;;;2.04;100.00;62212.72;5005405;28;20227;-76
2022/01/07 02:41:38;;;;;;;2.58;2.38;;;;;;;1.97;100.00;62200.00;5004392;28;20452;-76
2022/01/07 02:44:05;;;;;;;2.75;2.55;;;;;;;2.03;100.00;62209.19;5003631;28;20258;-76
2022/01/07 02:46:32;;;;;;;2.88;2.78;;;;;;;2.15;100.00;62218.50;5004222;28;20428;-76
2022/01/07 02:48:59;;;;;;;2.42;2.22;;;;;;;2.01;100.00;62209.13;5004352;28;20543;-76
2022/01/07 02:51:26;;;;;;;3.33;3.03;;;;;;;1.82;100.00;62187.13;5003947;28;20242;-76
2022/01/07 02:53:54;;;;;;;2.70;2.50;;;;;;;1.94;100.00;62199.97;5003906;28;20270;-76
2022/01/07 02:56:21;;;;;;;2.47;2.28;;;;;;;1.99;100.00;62207.59;5004377;28;20254;-76
2022/01/07 02:58:48;;;;;;;3.17;2.70;;;;;;;1.95;100.00;62200.97;5004671;28;20261;-76
2022/01/07 03:01:15;;;;;;;2.78;2.58;;;;;;;1.87;100.00;62197.25;5003655;28;20400;-76
2022/01/07 03:03:42;;;;;;;4.50;3.17;;;;;;;1.97;100.00;62202.50;5004068;28;20246;-77
2022/01/07 03:06:08;;;;;;;2.80;2.60;;;;;;;1.93;100.00;62201.44;5003606;28;20211;-76
2022/01/07 03:08:35;;;;;;;2.75;2.55;;;;;;;1.97;100.00;62200.53;5003830;28;20238;-77
2022/01/07 03:11:03;;;;;;;3.47;3.15;;;;;;;1.99;100.00;62207.06;5003646;28;20230;-76
2022/01/07 03:13:30;;;;;;;2.55;2.35;;;;;;;2.07;100.00;62215.31;5003382;28;20211;-76
2022/01/07 03:15:57;;;;;;;2.97;2.55;;;;;;;2.11;100.00;62219.41;5003135;28;20246;-77
2022/01/07 03:18:24;;;;;;;3.55;2.72;;;;;;;2.10;100.00;62220.88;5003740;28;20223;-76
2022/01/07 03:20:50;;;;;;;3.05;2.85;;;;;;;1.69;100.00;62174.28;5003857;28;20238;-75
2022/01/07 03:23:17;;;;;;;3.30;3.03;;;;;;;1.79;100.00;62184.56;5004018;28;21951;-76
2022/01/07 03:25:45;;;;;;;4.22;3.13;;;;;;;1.76;100.00;62183.47;5006625;28;20199;-76
2022/01/07 03:28:13;;;;;;;3.75;3.45;;;;;;;1.88;100.00;62193.78;5007317;28;20219;-76
2022/01/07 03:30:40;;;;;;;2.88;2.65;;;;;;;1.54;100.00;62158.38;5007757;28;20446;-76
2022/01/07 03:33:07;;;;;;;2.97;2.13;;;;;;;1.69;100.00;62176.28;5007833;28;20265;-75
2022/01/07 03:35:34;;;;;;;3.45;3.15;;;;;;;1.86;100.00;62196.25;5006581;28;20199;-76
2022/01/07 03:38:02;;;;;;;4.35;3.47;;;;;;;1.80;100.00;62188.09;5006973;28;20214;-76
2022/01/07 03:40:29;;;;;;;4.20;3.75;;;;;;;1.67;100.00;62174.75;5008226;28;20238;-77
2022/01/07 03:42:56;;;;;;;4.53;3.25;;;;;;;1.82;100.00;62190.16;5009637;28;20203;-76
2022/01/07 03:45:24;;;;;;;3.55;3.25;;;;;;;1.79;100.00;62184.56;5010045;28;20462;-76
2022/01/07 03:47:52;;;;;;;4.78;3.58;;;;;;;1.85;100.00;62188.19;5011760;28;20250;-75
2022/01/07 03:50:22;;;;;;;3.63;3.15;;;;;;;1.90;100.00;62200.34;5008357;28;20219;-76
2022/01/07 03:52:49;;;;;;;4.18;3.67;;;;;;;1.69;100.00;62174.28;5007510;28;20229;-75
2022/01/07 03:55:19;;;;;;;3.80;3.47;;;;;;;1.75;100.00;62184.94;5005879;28;20293;-76
2022/01/07 03:57:46;;;;;;;4.30;3.50;;;;;;;1.83;100.00;62188.16;5006587;28;20212;-76
2022/01/07 04:00:15;;;;;;;4.78;3.30;;;;;;;1.73;100.00;62180.38;5008003;28;20239;-76
2022/01/07 04:02:44;;;;;;;3.85;3.47;;;;;;;1.73;100.00;62178.41;5008167;28;20203;-76
2022/01/07 04:05:11;;;;;;;3.85;3.40;;;;;;;1.68;100.00;62170.75;5007244;28;20223;-76
2022/01/07 04:07:38;;;;;;;4.25;3.05;;;;;;;1.61;100.00;62168.06;5011361;28;20243;-76
2022/01/07 04:10:06;;;;;;;3.50;3.13;;;;;;;1.59;100.00;62166.53;5017586;28;20230;-76
2022/01/07 04:12:32;;;;;;;4.40;3.45;;;;;;;1.68;100.00;62175.25;5016204;28;20210;-76
2022/01/07 04:15:08;;;;;;;4.60;3.90;;;;;;;1.74;100.00;62176.91;5017648;28;20211;-76
2022/01/07 04:17:37;;;;;;;4.25;3.85;;;;;;;1.80;100.00;62185.56;5016949;28;20234;-76
2022/01/07 04:20:08;;;;;;;6.18;4.47;;;;;;;1.91;100.00;62201.38;5011671;28;20223;-76
2022/01/07 04:22:35;;;;;;;3.60;3.30;;;;;;;1.87;100.00;62194.75;5008657;28;20207;-76
2022/01/07 04:25:03;;;;;;;3.75;3.22;;;;;;;1.76;100.00;62180.97;5007277;28;20254;-76
2022/01/07 04:27:30;;;;;;;3.58;3.25;;;;;;;1.83;100.00;62193.19;5004671;28;20211;-76
2022/01/07 04:29:57;;;;;;;4.00;3.70;;;;;;;1.85;100.00;62190.72;5005836;28;20223;-76
2022/01/07 04:32:24;;;;;;;4.65;3.63;;;;;;;1.71;100.00;62175.84;4992563;28;20203;-76
2022/01/07 04:34:51;;;;;;;10.13;6.10;;;;;;;1.80;100.00;62183.06;5006817;28;20283;-76
2022/01/07 04:37:19;;;;;;;3.88;3.58;;;;;;;1.54;100.00;62158.88;5005156;28;20395;-76
2022/01/07 04:39:46;;;;;;;4.53;4.18;;;;;;;1.39;100.00;62143.50;5005579;28;20223;-76
2022/01/07 04:42:13;;;;;;;3.95;3.63;;;;;;;1.52;100.00;62156.84;5006762;28;20566;-76
2022/01/07 04:44:42;;;;;;;10.20;5.45;;;;;;;1.54;100.00;62158.88;5005120;28;20282;-76
2022/01/07 04:47:09;;;;;;;4.13;3.67;;;;;;;1.83;100.00;62188.66;5002340;28;20500;-75
2022/01/07 04:49:36;;;;;;;5.82;3.85;;;;;;;1.88;100.00;62190.78;5005894;28;20222;-77
2022/01/07 04:52:04;;;;;;;4.07;3.78;;;;;;;1.98;100.00;62204.06;5005872;28;20222;-77
2022/01/07 04:54:33;;;;;;;4.85;3.80;;;;;;;1.69;100.00;62171.78;5004844;28;20225;-77
2022/01/07 04:57:00;;;;;;;4.15;3.75;;;;;;;1.70;100.00;62172.81;5006203;28;20207;-76
2022/01/07 04:59:27;;;;;;;5.03;4.38;;;;;;;1.88;100.00;62193.78;5005883;28;20415;-75
2022/01/07 05:01:55;;;;;;;4.75;4.22;;;;;;;1.91;100.00;62196.88;5005949;28;20234;-76
2022/01/07 05:04:22;;;;;;;3.95;3.60;;;;;;;2.00;100.00;62208.13;5004861;28;20230;-76
2022/01/07 05:06:48;;;;;;;4.57;4.18;;;;;;;1.94;100.00;62201.94;5005793;28;20196;-77
2022/01/07 05:09:18;;;;;;;5.78;4.35;;;;;;;2.05;100.00;62211.25;5005757;28;20290;-76
2022/01/07 05:11:47;;;;;;;6.57;3.47;;;;;;;1.88;100.00;62196.28;5003029;28;20469;-77
2022/01/07 05:14:14;;;;;;;5.78;4.15;;;;;;;1.81;100.00;62178.56;5001492;28;20223;-76
2022/01/07 05:16:42;;;;;;;5.20;4.43;;;;;;;1.91;100.00;62201.38;5005293;28;20238;-76
2022/01/07 05:19:10;;;;;;;4.03;3.67;;;;;;;1.94;100.00;62201.94;5004362;28;20423;-76
2022/01/07 05:21:36;;;;;;;4.20;3.90;;;;;;;1.92;100.00;62199.88;5005687;28;20255;-75
2022/01/07 05:24:04;;;;;;;5.63;4.38;;;;;;;1.85;100.00;62192.69;5005085;28;20227;-77
2022/01/07 05:26:32;;;;;;;4.35;3.95;;;;;;;1.88;100.00;62193.78;5004347;28;20215;-77
2022/01/07 05:29:00;;;;;;;5.72;3.80;;;;;;;1.98;100.00;62203.56;4999734;28;20224;-76
2022/01/07 05:31:27;;;;;;;6.35;4.07;;;;;;;1.81;100.00;62186.59;5010500;28;20207;-76
2022/01/07 05:33:55;;;;;;;5.22;4.70;;;;;;;1.90;100.00;62198.34;5006055;28;20367;-76
2022/01/07 05:36:23;;;;;;;5.20;4.20;;;;;;;1.94;100.00;62197.44;5004943;28;20484;-77
2022/01/07 05:38:51;;;;;;;5.90;4.32;;;;;;;1.89;100.00;62194.31;5004341;28;20223;-76
2022/01/07 05:41:18;;;;;;;5.60;4.25;;;;;;;1.90;100.00;62195.31;5005536;28;20293;-76
2022/01/07 05:43:45;;;;;;;5.30;4.78;;;;;;;1.93;100.00;62206.44;5005895;28;20219;-77
2022/01/07 05:46:15;;;;;;;8.00;5.50;;;;;;;1.98;100.00;62201.56;5001943;28;20207;-77
2022/01/07 05:48:43;;;;;;;4.75;4.10;;;;;;;2.06;100.00;62212.28;5004919;28;20558;-76
2022/01/07 05:51:09;;;;;;;5.90;5.00;;;;;;;2.13;100.00;62221.97;5005107;28;20195;-77
2022/01/07 05:53:36;;;;;;;6.00;4.63;;;;;;;2.12;100.00;62218.44;5006221;28;20219;-77
2022/01/07 05:56:03;;;;;;;5.25;4.75;;;;;;;2.17;100.00;62228.59;5003586;28;20210;-76
2022/01/07 05:58:30;;;;;;;4.55;4.15;;;;;;;2.19;100.00;62225.63;5003696;28;20416;-77
2022/01/07 06:00:57;;;;;;;6.22;4.90;;;;;;;2.15;100.00;62219.00;5005136;28;20231;-78
2022/01/07 06:03:25;;;;;;;9.43;4.60;;;;;;;2.02;100.00;62208.16;5004050;28;20227;-77
2022/01/07 06:05:52;;;;;;;6.07;5.43;;;;;;;1.60;100.00;62162.03;5005195;28;20207;-76
2022/01/07 06:08:19;;;;;;;6.20;5.50;;;;;;;1.76;100.00;62186.50;5003784;28;20223;-76
2022/01/07 06:10:46;;;;;;;7.13;5.00;;;;;;;1.62;100.00;62171.63;5004337;28;20246;-76
2022/01/07 06:13:13;;;;;;;5.97;4.82;;;;;;;1.57;100.00;62166.47;5003699;28;20435;-77
2022/01/07 06:15:39;;;;;;;5.07;4.57;;;;;;;1.61;100.00;62165.56;4997203;28;20250;-77
2022/01/07 06:18:07;;;;;;;5.78;4.57;;;;;;;1.65;100.00;62169.66;4999718;28;20199;-77
2022/01/07 06:20:35;;;;;;;8.15;5.90;;;;;;;1.61;100.00;62168.59;5000553;28;20191;-76
2022/01/07 06:23:02;;;;;;;8.98;5.78;;;;;;;1.68;100.00;62173.25;5004452;28;20218;-77
2022/01/07 06:25:28;;;;;;;8.43;5.82;;;;;;;1.68;100.00;62175.25;5004434;28;20249;-76
2022/01/07 06:27:55;;;;;;;7.07;6.00;;;;;;;1.70;100.00;62174.81;5003566;28;20424;-76
2022/01/07 06:30:22;;;;;;;6.55;5.88;;;;;;;1.55;100.00;62159.94;5006200;28;20223;-77
2022/01/07 06:32:49;;;;;;;7.20;5.35;;;;;;;1.66;100.00;62171.22;5006105;28;20203;-76
2022/01/07 06:35:16;;;;;;;7.97;5.93;;;;;;;1.69;100.00;62171.78;5004204;28;20215;-78
2022/01/07 06:37:44;;;;;;;9.65;6.40;;;;;;;1.78;100.00;62183.53;5004279;28;20197;-76
2022/01/07 06:40:11;;;;;;;8.30;6.10;;;;;;;1.80;100.00;62187.56;5003203;28;20451;-77
2022/01/07 06:42:39;;;;;;;7.63;5.90;;;;;;;1.48;100.00;62157.25;5007247;28;20506;-77
2022/01/07 06:45:07;;;;;;;6.78;6.18;;;;;;;1.72;100.00;62176.84;5005595;28;20219;-77
2022/01/07 06:47:34;;;;;;;6.00;5.35;;;;;;;1.93;100.00;62198.91;5007039;28;20262;-77
2022/01/07 06:50:01;;;;;;;10.88;5.03;;;;;;;1.95;100.00;62208.50;5008560;28;20219;-76
2022/01/07 06:52:28;;;;;;;6.30;5.15;;;;;;;1.96;100.00;62204.00;5014631;28;20199;-77
2022/01/07 06:54:57;;;;;;;8.20;5.78;;;;;;;1.96;100.00;62204.53;5012115;28;20266;-77
2022/01/07 06:57:24;;;;;;;6.40;5.70;;;;;;;1.95;100.00;62200.47;5013625;28;20473;-77
2022/01/07 06:59:50;;;;;;;8.85;5.75;;;;;;;1.93;100.00;62198.41;5015058;28;20219;-77
2022/01/07 07:02:17;;;;;;;10.60;5.93;;;;;;;2.00;100.00;62213.63;5007896;28;20239;-77
2022/01/07 07:04:46;;;;;;;6.63;5.95;;;;;;;2.04;100.00;62210.22;5010374;28;20227;-76
2022/01/07 07:07:13;;;;;;;7.32;5.93;;;;;;;2.07;100.00;62215.81;5009053;28;20203;-78
2022/01/07 07:09:40;;;;;;;6.45;5.75;;;;;;;2.10;100.00;62216.38;5004525;28;20227;-77
2022/01/07 07:12:09;;;;;;;7.05;6.35;;;;;;;2.24;100.00;62233.25;5009374;28;20200;-77
2022/01/07 07:14:36;;;;;;;5.75;4.28;;;;;;;2.27;100.00;62233.31;5008995;28;20216;-76
2022/01/07 07:17:04;;;;;;;7.82;6.80;;;;;;;2.29;100.00;62230.88;5009194;28;20200;-76
2022/01/07 07:19:31;;;;;;;8.20;5.60;;;;;;;2.32;100.00;62235.94;5000648;28;20216;-76
2022/01/07 07:21:58;;;;;;;7.68;5.15;;;;;;;2.14;100.00;62219.97;4990281;28;20227;-77
2022/01/07 07:24:25;;;;;;;6.70;5.35;;;;;;;2.19;100.00;62225.13;4989887;28;20266;-76
2022/01/07 07:26:52;;;;;;;8.75;6.30;;;;;;;2.38;100.00;62247.66;5005430;28;20542;-77
2022/01/07 07:29:20;;;;;;;8.32;5.82;;;;;;;2.43;100.00;62252.28;5009610;28;20215;-78
2022/01/07 07:31:54;;;;;;;9.40;6.20;;;;;;;2.59;100.00;62268.19;5009327;28;20219;-77
2022/01/07 07:37:05;;;;;;;9.45;5.10;;;;;;;2.62;100.00;62266.78;5010334;28;20566;-77
2022/01/07 07:39:32;;;;;;;9.43;6.10;;;;;;;2.57;100.00;62263.63;5010285;28;20219;-76
2022/01/07 07:41:59;;;;;;;10.02;6.47;;;;;;;2.40;100.00;62249.19;5011289;28;20231;-77
2022/01/07 07:44:27;;;;;;;7.43;5.50;;;;;;;2.55;100.00;62259.59;5008427;28;20266;-77
2022/01/07 07:46:54;;;;;;;10.32;5.38;;;;;;;2.70;100.00;62276.97;5006868;28;20214;-77
2022/01/07 07:49:21;;;;;;;8.68;5.72;;;;;;;2.89;100.00;62299.00;5005936;28;20219;-77
2022/01/07 07:51:48;;;;;;;6.82;4.65;;;;;;;3.00;100.00;62305.81;5006027;28;20278;-77
2022/01/07 07:54:15;;;;;;;6.72;5.72;;;;;;;3.05;100.00;62318.50;5003900;28;20223;-76
2022/01/07 07:56:42;;;;;;;8.45;5.63;;;;;;;3.15;100.00;62318.19;5006866;28;20219;-77
2022/01/07 07:59:08;;;;;;;9.45;6.05;;;;;;;2.98;100.00;62310.78;5006120;28;20270;-77
2022/01/07 08:01:37;;;;;;;7.25;5.60;;;;;;;3.04;100.00;62312.44;5004042;28;20458;-77
2022/01/07 08:04:04;;;;;;;9.50;6.78;;;;;;;3.22;100.00;62330.44;4999408;28;20219;-77
2022/01/07 08:06:31;;;;;;;6.78;6.03;;;;;;;3.30;100.00;62338.66;5004146;28;20203;-76
2022/01/07 08:08:58;;;;;;;9.55;6.85;;;;;;;3.51;100.00;62362.75;4998451;28;20250;-77
2022/01/07 08:11:30;;;;;;;10.05;6.15;;;;;;;3.19;100.00;62332.38;5002445;28;20253;-77
2022/01/07 08:16:44;;;;;;;8.60;5.60;;;;;;;2.49;100.00;62255.41;4985966;28;20354;-76
2022/01/07 08:19:11;;;;;;;7.95;6.53;;;;;;;2.74;100.00;62281.63;5006112;28;20264;-76
2022/01/07 08:21:38;;;;;;;8.43;6.60;;;;;;;3.06;100.00;62319.53;5004261;28;20242;-77
2022/01/07 08:24:05;;;;;;;12.52;6.82;;;;;;;3.05;100.00;62317.97;5001924;28;20234;-76
2022/01/07 08:26:32;;;;;;;7.82;5.93;;;;;;;3.20;100.00;62333.41;5001391;28;20230;-77
2022/01/07 08:29:05;;;;;;;8.07;5.85;;;;;;;3.13;100.00;62326.72;5002015;28;20223;-76
2022/01/07 08:37:03;;;;;;;10.82;5.63;;;;;;;3.34;100.00;62342.75;4999761;28;20211;-76
2022/01/07 08:39:30;;;;;;;7.80;5.70;;;;;;;3.36;99.81;62349.84;5002729;28;20223;-77
2022/01/07 08:41:57;;;;;;;8.02;5.95;;;;;;;3.25;100.00;62339.06;5005809;28;20464;-77
2022/01/07 08:44:26;;;;;;;7.35;5.45;;;;;;;3.33;100.00;62339.72;5003172;28;20262;-77
2022/01/07 08:46:52;;;;;;;10.68;6.55;;;;;;;3.33;99.64;62339.72;5001438;28;20203;-77
2022/01/07 08:49:21;;;;;;;8.70;5.60;;;;;;;3.38;99.54;62347.38;5004726;28;20227;-76
2022/01/07 08:51:47;;;;;;;10.55;6.93;;;;;;;3.45;99.17;62356.59;5006567;28;20196;-77
2022/01/07 08:54:14;;;;;;;7.80;6.00;;;;;;;3.52;98.96;62361.25;5006301;28;20220;-76
2022/01/07 08:56:41;;;;;;;8.10;6.10;;;;;;;3.65;98.66;62374.13;5005703;28;20212;-77
2022/01/07 08:59:08;;;;;;;11.05;6.88;;;;;;;3.67;97.52;62374.19;5004511;28;20241;-77
2022/01/07 09:01:34;;;;;;;6.53;5.35;;;;;;;3.75;97.54;62386.91;4999109;28;20397;-76
2022/01/07 09:04:01;;;;;;;10.25;6.10;;;;;;;3.75;97.38;62384.41;5006177;28;20215;-76
2022/01/07 09:06:29;;;;;;;10.45;7.05;;;;;;;3.86;97.43;62395.72;5004288;28;20499;-77
2022/01/07 09:08:56;;;;;;;9.80;6.47;;;;;;;3.92;97.10;62404.41;4997206;28;20602;-77
2022/01/07 09:11:23;;;;;;;9.60;7.68;;;;;;;4.02;96.67;62414.69;5002460;28;20203;-77
2022/01/07 09:13:51;;;;;;;11.15;6.55;;;;;;;4.05;95.61;62415.25;5002852;28;20219;-76
2022/01/07 09:16:19;;;;;;;7.78;6.07;;;;;;;3.83;95.92;62398.19;5003319;28;20230;-76
2022/01/07 09:18:45;;;;;;;8.23;6.10;;;;;;;3.68;97.89;62382.75;5003884;28;20219;-77
2022/01/07 09:21:12;;;;;;;9.25;6.57;;;;;;;3.47;99.00;62366.19;4993957;28;20239;-77
2022/01/07 09:23:41;;;;;;;8.82;6.72;;;;;;;3.53;99.99;62360.31;4988720;28;20243;-77
2022/01/07 09:26:09;;;;;;;7.18;5.50;;;;;;;3.41;99.57;62355.50;5014073;28;20210;-76
2022/01/07 09:28:36;;;;;;;8.60;5.88;;;;;;;3.38;99.89;62344.88;5015883;28;20278;-76
2022/01/07 09:31:03;;;;;;;7.20;5.75;;;;;;;3.34;100.00;62347.78;5015054;28;20219;-76
2022/01/07 09:33:30;;;;;;;7.65;5.47;;;;;;;3.29;100.00;62343.16;5014439;28;20250;-76
2022/01/07 09:35:57;;;;;;;7.20;4.82;;;;;;;3.71;99.75;62377.78;5010415;28;20251;-78
2022/01/07 09:38:25;;;;;;;8.00;5.43;;;;;;;3.50;97.79;62359.72;5005447;28;20563;-76
2022/01/07 09:40:54;;;;;;;9.75;6.53;;;;;;;3.21;99.15;62332.41;5006552;28;20199;-76
2022/01/07 09:43:21;;;;;;;5.78;4.40;;;;;;;3.27;98.70;62336.09;5002808;28;20281;-77
2022/01/07 09:45:48;;;;;;;6.13;4.68;;;;;;;3.57;98.69;62365.91;5007119;28;20200;-77
2022/01/07 09:48:15;;;;;;;3.45;3.15;;;;;;;4.09;95.35;62422.41;5005075;28;20198;-77
2022/01/07 09:50:42;;;;;;;4.38;3.05;;;;;;;4.17;91.84;62430.13;5003118;28;20200;-77
2022/01/07 09:53:12;;;;;;;2.90;2.35;;;;;;;4.64;89.59;62476.50;5004492;28;20207;-75
2022/01/07 09:55:39;;;;;;;3.55;2.50;;;;;;;4.70;86.87;62482.66;5003780;28;20214;-76
2022/01/07 09:58:09;;;;;;;4.28;3.85;;;;;;;5.10;86.69;62522.81;5002387;28;20246;-77
2022/01/07 10:00:40;;;;;;;6.03;4.10;;;;;;;5.01;84.63;62516.59;5004671;28;20282;-76
2022/01/07 10:03:09;;;;;;;7.78;5.57;;;;;;;5.20;84.08;62536.16;5003252;28;20225;-76
2022/01/07 10:05:44;;;;;;;8.25;4.30;;;;;;;4.77;85.13;62493.88;5003670;28;20624;-76
2022/01/07 10:08:21;;;;;;;4.55;4.13;;;;;;;4.43;87.05;62454.88;5003106;28;20206;-75
2022/01/07 10:10:49;;;;;;;5.28;4.43;;;;;;;4.48;86.68;62462.03;5004734;28;20270;-77
2022/01/07 10:13:21;;;;;;;10.25;3.80;;;;;;;4.51;85.88;62460.06;5005066;28;20199;-77
2022/01/07 10:15:47;;;;;;;3.90;3.45;;;;;;;4.86;83.87;62495.59;5001019;28;20227;-76
2022/01/07 10:18:16;;;;;;;3.20;2.90;;;;;;;5.21;80.97;62536.69;5005027;28;20196;-77
2022/01/07 10:20:45;;;;;;;7.45;3.65;;;;;;;5.07;79.96;62524.78;4987511;28;20409;-76
2022/01/07 10:23:14;;;;;;;4.03;3.33;;;;;;;4.62;81.73;62471.41;4994121;28;20410;-76
2022/01/07 10:25:43;;;;;;;3.85;3.47;;;;;;;5.02;80.96;62515.09;5005807;28;20200;-77
2022/01/07 10:28:13;;;;;;;3.72;3.42;;;;;;;5.41;78.30;62552.75;5008248;28;20188;-78
2022/01/07 10:30:46;;;;;;;4.13;3.08;;;;;;;5.68;75.26;62580.03;5006850;28;20246;-76
2022/01/07 10:33:18;;;;;;;3.30;3.00;;;;;;;5.87;72.23;62604.19;5004535;28;20195;-76
2022/01/07 10:35:45;;;;;;;6.22;3.33;;;;;;;5.33;74.26;62547.03;5009528;28;20246;-78
2022/01/07 10:38:19;;;;;;;3.72;3.42;;;;;;;5.15;75.51;62525.97;5010197;28;20203;-77
2022/01/07 10:40:47;;;;;;;4.00;3.45;;;;;;;5.01;76.88;62516.59;5008477;28;20212;-77
2022/01/07 10:43:17;;;;;;;3.35;3.05;;;;;;;5.05;77.79;62517.69;5008306;28;20548;-77
2022/01/07 10:45:48;;;;;;;9.90;5.63;;;;;;;5.08;78.80;62523.81;5008665;28;20199;-75
2022/01/07 10:48:16;;;;;;;5.82;4.45;;;;;;;5.23;79.32;62541.28;5008094;28;20199;-77
2022/01/07 10:50:45;;;;;;;6.68;4.53;;;;;;;5.59;77.09;62578.34;5001477;28;20219;-76
2022/01/07 10:53:22;;;;;;;5.70;3.83;;;;;;;5.75;75.44;62589.78;5007099;28;20238;-78
2022/01/07 10:56:08;;;;;;;7.07;3.83;;;;;;;5.97;71.75;62615.00;5008354;28;20274;-75
2022/01/07 10:58:51;;;;;;;7.70;4.20;;;;;;;5.92;71.96;62606.81;5007203;28;20803;-77
2022/01/07 11:01:40;;;;;;;4.53;3.97;;;;;;;6.18;71.57;62636.66;5007506;28;20270;-76
2022/01/07 11:04:09;;;;;;;8.52;4.32;;;;;;;6.31;68.34;62650.06;5008055;28;20231;-76
2022/01/07 11:06:37;;;;;;;5.53;3.67;;;;;;;6.26;68.27;62642.38;5006391;28;20270;-76
2022/01/07 11:09:09;;;;;;;4.75;4.05;;;;;;;5.83;69.63;62601.09;5006512;28;20235;-75
2022/01/07 11:11:43;;;;;;;5.93;4.28;;;;;;;5.54;72.40;62568.16;5009003;28;20188;-76
2022/01/07 11:14:10;;;;;;;4.00;3.60;;;;;;;5.55;71.83;62569.19;5008321;28;20245;-76
2022/01/07 11:16:39;;;;;;;6.40;3.95;;;;;;;5.26;74.60;62541.84;5000360;28;20199;-76
2022/01/07 11:19:09;;;;;;;6.82;4.22;;;;;;;5.29;73.58;62547.44;5001965;28;20279;-77
2022/01/07 11:21:36;;;;;;;6.05;4.45;;;;;;;5.35;73.82;62548.59;4999750;28;20377;-76
2022/01/07 11:24:38;;;;;;;4.75;3.42;;;;;;;5.60;73.26;62576.84;5007321;28;20235;-76
2022/01/07 11:27:08;;;;;;;5.90;4.28;;;;;;;5.44;74.02;62557.84;5008898;28;20217;-75
2022/01/07 11:30:51;;;;;;;5.50;4.38;;;;;;;5.55;74.07;62569.69;5009779;28;20219;-76
2022/01/07 11:34:04;;;;;;;5.53;4.25;;;;;;;5.76;71.74;62590.81;4885598;29;20227;-76
2022/01/07 11:37:05;;;;;;;5.03;4.28;;;;;;;5.97;72.13;62611.97;4886432;29;20209;-77
2022/01/07 11:40:23;;;;;;;7.05;4.68;;;;;;;6.02;70.67;62619.63;4838687;29;20231;-78
2022/01/07 11:59:38;;;;;;;6.95;5.35;;;;;;;5.54;74.66;62568.66;5005912;28;20230;-78
2022/01/07 12:02:24;;;;;;;9.38;5.28;;;;;;;5.47;76.48;62560.94;4894773;29;20229;-76
2022/01/07 12:09:20;;;;;;;14.80;5.40;;;;;;;5.14;78.09;62526.94;5012383;28;20279;-76
2022/01/07 12:12:34;;;;;;;8.07;5.55;;;;;;;5.50;74.93;62564.03;5001810;28;20199;-76
2022/01/07 12:15:58;;;;;;;12.07;7.45;;;;;;;5.49;72.82;62566.03;4972162;28;20231;-76